Time,TemperatureF,DewpointF,PressureIn,WindDirection,WindDirectionDegrees,WindSpeedMPH,WindSpeedGustMPH,Humidity,HourlyPrecipIn,Conditions,Clouds,dailyrainin,SolarRadiationWatts/m^2,SoftwareType,DateUTC
2013-05-08 00:02:00,52.0,52.0,-100.00,NNE,24,1.0,2.0,99,0.00,,,0.00,0.000000,,2013-05-08 04:02:00,
2013-05-08 00:13:00,52.0,52.0,-100.00,NNE,24,1.0,2.0,99,0.00,,,0.00,0.000000,,2013-05-08 04:13:00,
2013-05-08 00:23:00,52.0,52.0,-100.00,NNE,24,1.0,2.0,99,0.00,,,0.00,0.000000,,2013-05-08 04:23:00,
2013-05-08 00:53:00,51.0,51.0,-100.00,NNE,20,2.0,2.0,99,0.00,,,0.00,0.000000,,2013-05-08 04:53:00,
2013-05-08 01:02:00,51.0,51.0,-100.00,NNE,20,2.0,2.0,99,0.00,,,0.00,0.000000,,2013-05-08 05:02:00,
2013-05-08 01:12:00,51.0,51.0,-100.00,NNE,20,2.0,2.0,99,0.00,,,0.00,0.000000,,2013-05-08 05:12:00,
2013-05-08 01:22:00,51.0,51.0,-100.00,NNE,20,2.0,2.0,99,0.00,,,0.00,0.000000,,2013-05-08 05:22:00,
2013-05-08 01:52:00,50.0,50.0,-100.00,NE,46,0.0,2.0,100,0.00,,,0.00,0.000000,,2013-05-08 05:52:00,
2013-05-08 02:02:00,50.0,50.0,-100.00,NE,46,0.0,2.0,100,0.00,,,0.00,0.000000,,2013-05-08 06:02:00,
2013-05-08 02:12:00,50.0,50.0,-100.00,NE,46,0.0,2.0,100,0.00,,,0.00,0.000000,,2013-05-08 06:12:00,
2013-05-08 02:22:00,50.0,50.0,-100.00,NE,46,0.0,2.0,100,0.00,,,0.00,0.000000,,2013-05-08 06:22:00,
2013-05-08 02:52:00,50.0,50.0,-100.00,NNE,14,1.0,2.0,100,0.00,,,0.00,0.000000,,2013-05-08 06:52:00,
2013-05-08 03:02:00,50.0,50.0,-100.00,NNE,14,1.0,2.0,100,0.00,,,0.00,0.000000,,2013-05-08 07:02:00,
2013-05-08 03:11:00,50.0,50.0,-100.00,NNE,14,1.0,2.0,100,0.00,,,0.00,0.000000,,2013-05-08 07:11:00,
2013-05-08 03:22:00,50.0,50.0,-100.00,NNE,14,1.0,2.0,100,0.00,,,0.00,0.000000,,2013-05-08 07:22:00,
2013-05-08 03:52:00,48.0,48.0,-100.00,North,8,2.0,3.0,100,0.00,,,0.00,0.000000,,2013-05-08 07:52:00,
2013-05-08 04:02:00,48.0,48.0,-100.00,North,8,2.0,3.0,100,0.00,,,0.00,0.000000,,2013-05-08 08:02:00,
2013-05-08 04:12:00,48.0,48.0,-100.00,North,8,2.0,3.0,100,0.00,,,0.00,0.000000,,2013-05-08 08:12:00,
2013-05-08 04:22:00,48.0,48.0,-100.00,North,8,2.0,3.0,100,0.00,,,0.00,0.000000,,2013-05-08 08:22:00,
2013-05-08 04:52:00,48.0,48.0,-100.00,NNW,328,2.0,2.0,100,0.00,,,0.00,0.000000,,2013-05-08 08:52:00,
2013-05-08 05:02:00,48.0,48.0,-100.00,NNW,328,2.0,2.0,100,0.00,,,0.00,0.000000,,2013-05-08 09:02:00,
2013-05-08 05:11:00,48.0,48.0,-100.00,NNW,328,2.0,2.0,100,0.00,,,0.00,0.000000,,2013-05-08 09:11:00,
2013-05-08 05:21:00,48.0,48.0,-100.00,NNW,328,2.0,2.0,100,0.00,,,0.00,0.000000,,2013-05-08 09:21:00,
2013-05-08 05:53:00,48.0,48.0,-100.00,NNE,24,0.0,2.0,100,0.00,,,0.00,1.000000,,2013-05-08 09:53:00,
2013-05-08 06:02:00,48.0,48.0,-100.00,NNE,24,0.0,2.0,100,0.00,,,0.00,1.000000,,2013-05-08 10:02:00,
2013-05-08 06:12:00,48.0,48.0,-100.00,NNE,24,0.0,2.0,100,0.00,,,0.00,1.000000,,2013-05-08 10:12:00,
2013-05-08 06:23:00,48.0,48.0,-100.00,NNE,24,0.0,2.0,100,0.00,,,0.00,1.000000,,2013-05-08 10:23:00,
2013-05-08 06:53:00,48.0,48.0,-100.00,West,281,0.0,3.0,100,0.00,,,0.00,21.000000,,2013-05-08 10:53:00,
2013-05-08 07:02:00,48.0,48.0,-100.00,West,281,0.0,3.0,100,0.00,,,0.00,21.000000,,2013-05-08 11:02:00,
2013-05-08 07:11:00,48.0,48.0,-100.00,West,281,0.0,3.0,100,0.00,,,0.00,21.000000,,2013-05-08 11:11:00,
2013-05-08 07:22:00,48.0,48.0,-100.00,West,281,0.0,3.0,100,0.00,,,0.00,21.000000,,2013-05-08 11:22:00,
2013-05-08 07:52:00,58.0,58.0,-100.00,ESE,120,2.0,3.0,99,0.00,,,0.00,196.000000,,2013-05-08 11:52:00,
2013-05-08 08:02:00,58.0,58.0,-100.00,ESE,120,2.0,3.0,99,0.00,,,0.00,196.000000,,2013-05-08 12:02:00,
2013-05-08 08:11:00,58.0,58.0,-100.00,ESE,120,2.0,3.0,99,0.00,,,0.00,196.000000,,2013-05-08 12:11:00,
2013-05-08 08:21:00,58.0,58.0,-100.00,ESE,120,2.0,3.0,99,0.00,,,0.00,196.000000,,2013-05-08 12:21:00,
2013-05-08 08:52:00,59.0,55.0,-100.00,SE,139,5.0,9.0,88,0.00,,,0.00,375.000000,,2013-05-08 12:52:00,
2013-05-08 09:01:00,59.0,55.0,-100.00,SE,139,5.0,9.0,88,0.00,,,0.00,375.000000,,2013-05-08 13:01:00,
2013-05-08 09:12:00,59.0,55.0,-100.00,SE,139,5.0,9.0,88,0.00,,,0.00,375.000000,,2013-05-08 13:12:00,
2013-05-08 09:21:00,59.0,55.0,-100.00,SE,139,5.0,9.0,88,0.00,,,0.00,375.000000,,2013-05-08 13:21:00,
2013-05-08 09:52:00,61.0,56.0,-100.00,SE,136,4.0,9.0,85,0.00,,,0.00,550.000000,,2013-05-08 13:52:00,
2013-05-08 10:02:00,61.0,56.0,-100.00,SE,136,4.0,9.0,85,0.00,,,0.00,550.000000,,2013-05-08 14:02:00,
2013-05-08 10:12:00,61.0,56.0,-100.00,SE,136,4.0,9.0,85,0.00,,,0.00,550.000000,,2013-05-08 14:12:00,
2013-05-08 10:22:00,61.0,56.0,-100.00,SE,136,4.0,9.0,85,0.00,,,0.00,550.000000,,2013-05-08 14:22:00,
2013-05-08 10:52:00,58.0,54.0,-100.00,ESE,120,4.0,7.0,88,0.00,,,0.00,576.000000,,2013-05-08 14:52:00,
2013-05-08 11:02:00,58.0,54.0,-100.00,ESE,120,4.0,7.0,88,0.00,,,0.00,576.000000,,2013-05-08 15:02:00,
2013-05-08 11:11:00,58.0,54.0,-100.00,ESE,120,4.0,7.0,88,0.00,,,0.00,576.000000,,2013-05-08 15:11:00,
2013-05-08 11:22:00,58.0,54.0,-100.00,ESE,120,4.0,7.0,88,0.00,,,0.00,576.000000,,2013-05-08 15:22:00,
2013-05-08 11:53:00,57.0,53.0,-100.00,SE,146,5.0,8.0,87,0.00,,,0.00,505.000000,,2013-05-08 15:53:00,
2013-05-08 12:03:00,57.0,53.0,-100.00,SE,146,5.0,8.0,87,0.00,,,0.00,505.000000,,2013-05-08 16:03:00,
2013-05-08 12:13:00,57.0,53.0,-100.00,SE,146,5.0,8.0,87,0.00,,,0.00,505.000000,,2013-05-08 16:13:00,
2013-05-08 12:23:00,57.0,53.0,-100.00,SE,146,5.0,8.0,87,0.00,,,0.00,505.000000,,2013-05-08 16:23:00,
2013-05-08 12:52:00,57.0,56.0,-100.00,ESE,116,3.0,8.0,95,0.00,,,-99.99,269.000000,,2013-05-08 16:52:00,
2013-05-08 13:02:00,57.0,56.0,-100.00,ESE,116,3.0,8.0,95,0.00,,,-99.99,269.000000,,2013-05-08 17:02:00,
2013-05-08 13:12:00,57.0,56.0,-100.00,ESE,116,3.0,8.0,95,0.00,,,-99.99,269.000000,,2013-05-08 17:12:00,
2013-05-08 13:22:00,57.0,56.0,-100.00,ESE,116,3.0,8.0,95,0.00,,,-99.99,269.000000,,2013-05-08 17:22:00,
2013-05-08 13:52:00,62.0,56.0,-100.00,SE,142,5.0,8.0,80,0.00,,,-99.99,549.000000,,2013-05-08 17:52:00,
2013-05-08 14:02:00,62.0,56.0,-100.00,SE,142,5.0,8.0,80,0.00,,,-99.99,549.000000,,2013-05-08 18:02:00,
2013-05-08 14:12:00,62.0,56.0,-100.00,SE,142,5.0,8.0,80,0.00,,,-99.99,549.000000,,2013-05-08 18:12:00,
2013-05-08 14:21:00,62.0,56.0,-100.00,SE,142,5.0,8.0,80,0.00,,,-99.99,549.000000,,2013-05-08 18:21:00,
2013-05-08 14:52:00,64.0,57.0,-100.00,SE,125,4.0,8.0,78,0.00,,,0.00,727.000000,,2013-05-08 18:52:00,
2013-05-08 15:02:00,64.0,57.0,-100.00,SE,125,4.0,8.0,78,0.00,,,0.00,727.000000,,2013-05-08 19:02:00,
2013-05-08 15:11:00,64.0,57.0,-100.00,SE,125,4.0,8.0,78,0.00,,,0.00,727.000000,,2013-05-08 19:11:00,
2013-05-08 15:22:00,64.0,57.0,-100.00,SE,125,4.0,8.0,78,0.00,,,0.00,727.000000,,2013-05-08 19:22:00,
2013-05-08 15:52:00,64.0,57.0,-100.00,ESE,108,4.0,8.0,79,0.00,,,0.00,463.000000,,2013-05-08 19:52:00,
2013-05-08 16:02:00,64.0,57.0,-100.00,ESE,108,4.0,8.0,79,0.00,,,0.00,463.000000,,2013-05-08 20:02:00,
2013-05-08 16:12:00,64.0,57.0,-100.00,ESE,108,4.0,8.0,79,0.00,,,0.00,463.000000,,2013-05-08 20:12:00,
2013-05-08 16:22:00,64.0,57.0,-100.00,ESE,108,4.0,8.0,79,0.00,,,0.00,463.000000,,2013-05-08 20:22:00,
2013-05-08 16:52:00,63.0,58.0,-100.00,ESE,119,3.0,6.0,83,0.00,,,0.00,316.000000,,2013-05-08 20:52:00,
2013-05-08 17:02:00,63.0,58.0,-100.00,ESE,119,3.0,6.0,83,0.00,,,0.00,316.000000,,2013-05-08 21:02:00,
2013-05-08 17:12:00,63.0,58.0,-100.00,ESE,119,3.0,6.0,83,0.00,,,0.00,316.000000,,2013-05-08 21:12:00,
2013-05-08 17:21:00,63.0,58.0,-100.00,ESE,119,3.0,6.0,83,0.00,,,0.00,316.000000,,2013-05-08 21:21:00,
2013-05-08 17:53:00,60.0,56.0,-100.00,ESE,115,4.0,8.0,87,0.00,,,0.00,143.000000,,2013-05-08 21:53:00,
2013-05-08 18:03:00,60.0,56.0,-100.00,ESE,115,4.0,8.0,87,0.00,,,0.00,143.000000,,2013-05-08 22:03:00,
2013-05-08 18:12:00,60.0,56.0,-100.00,ESE,115,4.0,8.0,87,0.00,,,0.00,143.000000,,2013-05-08 22:12:00,
2013-05-08 18:22:00,60.0,56.0,-100.00,ESE,115,4.0,8.0,87,0.00,,,0.00,143.000000,,2013-05-08 22:22:00,
2013-05-08 18:53:00,58.0,54.0,-100.00,SE,124,3.0,7.0,88,0.00,,,0.00,82.000000,,2013-05-08 22:53:00,
2013-05-08 19:02:00,58.0,54.0,-100.00,SE,124,3.0,7.0,88,0.00,,,0.00,82.000000,,2013-05-08 23:02:00,
2013-05-08 19:12:00,58.0,54.0,-100.00,SE,124,3.0,7.0,88,0.00,,,0.00,82.000000,,2013-05-08 23:12:00,
2013-05-08 19:22:00,58.0,54.0,-100.00,SE,124,3.0,7.0,88,0.00,,,0.00,82.000000,,2013-05-08 23:22:00,
2013-05-08 19:53:00,57.0,55.0,-100.00,ESE,122,2.0,9.0,92,0.00,,,0.00,30.000000,,2013-05-08 23:53:00,
2013-05-08 20:02:00,57.0,55.0,-100.00,ESE,122,2.0,9.0,92,0.00,,,0.00,30.000000,,2013-05-09 00:02:00,
2013-05-08 20:12:00,57.0,55.0,-100.00,ESE,122,2.0,9.0,92,0.00,,,0.00,30.000000,,2013-05-09 00:12:00,
2013-05-08 20:21:00,57.0,55.0,-100.00,ESE,122,2.0,9.0,92,0.00,,,0.00,30.000000,,2013-05-09 00:21:00,
2013-05-08 20:52:00,56.0,55.0,-100.00,East,88,2.0,6.0,95,0.00,,,0.00,2.000000,,2013-05-09 00:52:00,
2013-05-08 21:01:00,56.0,55.0,-100.00,East,88,2.0,6.0,95,0.00,,,0.00,2.000000,,2013-05-09 01:01:00,
2013-05-08 21:12:00,56.0,55.0,-100.00,East,88,2.0,6.0,95,0.00,,,0.00,2.000000,,2013-05-09 01:12:00,
2013-05-08 21:22:00,56.0,55.0,-100.00,East,88,2.0,6.0,95,0.00,,,0.00,2.000000,,2013-05-09 01:22:00,
2013-05-08 21:53:00,56.0,55.0,-100.00,East,84,1.0,2.0,98,0.00,,,0.00,0.000000,,2013-05-09 01:53:00,
2013-05-08 22:02:00,56.0,55.0,-100.00,East,84,1.0,2.0,98,0.00,,,0.00,0.000000,,2013-05-09 02:02:00,
2013-05-08 22:12:00,56.0,55.0,-100.00,East,84,1.0,2.0,98,0.00,,,0.00,0.000000,,2013-05-09 02:12:00,
2013-05-08 22:22:00,56.0,55.0,-100.00,East,84,1.0,2.0,98,0.00,,,0.00,0.000000,,2013-05-09 02:22:00,
2013-05-08 23:02:00,55.0,54.0,-100.00,ENE,72,2.0,5.0,98,0.01,,,0.01,0.000000,,2013-05-09 03:02:00,
2013-05-08 23:11:00,55.0,54.0,-100.00,ENE,72,2.0,5.0,98,0.01,,,0.01,0.000000,,2013-05-09 03:11:00,
2013-05-08 23:21:00,55.0,54.0,-100.00,ENE,72,2.0,5.0,98,0.01,,,0.01,0.000000,,2013-05-09 03:21:00,
2013-05-08 23:53:00,54.0,53.0,-100.00,ENE,70,3.0,6.0,98,0.00,,,0.01,0.000000,,2013-05-09 03:53:00,